KLTS/LTS METAR and TAF weather

Enter ICAO airport designator
Station Type Date Time Source
KLTS METAR 2020/03/29 19:56 UTC NOAA

KLTS 291956Z AUTO 14004KT 10SM CLR 19/01 A3016 RMK AO2 SLP210 T01920007 $


Station Type Date Time Source
KLTS Decoded METAR 2020/03/29 19:56 UTC NOAA

Altus Air Force Base, OK, United States (KLTS) 34-39N 099-16W 420M
Mar 29, 2020 - 03:56 PM EDT / 2020.03.29 1956 UTC
Wind: from the SE (140 degrees) at 5 MPH (4 KT):0
Visibility: 10 mile(s):0
Sky conditions: clear
Temperature: 66.6 F (19.2 C)
Dew Point: 33.3 F (0.7 C)
Relative Humidity: 28%
Pressure (altimeter): 30.16 in. Hg (1021 hPa)
ob: KLTS 291956Z AUTO 14004KT 10SM CLR 19/01 A3016 RMK AO2 SLP210 T01920007
cycle: 20

Station Type Date Time Source
KLTS TAF 2020/03/28 01:59 UTC NOAA

TAF COR KLTS 280644Z 2801/2907 17006KT 9999 BKN200 520302 QNH2955INS
BECMG 2805/2806 20012KT 9999 SCT200 510053 QNH2958INS
BECMG 2811/2812 25015KT 9999 FEW140 520456 QNH2967INS
BECMG 2814/2815 27020G30KT 9999 SKC 510003 520703 QNH2972INS
BECMG 2823/2824 34012KT 9999 SCT090 510033 QNH2980INS TX22/2821Z TN14/2812Z LAST NO
AMDS AFT 2806 NEXT 3009

Example: see airport list